createdAt,value
2017-12-13T00:01:04.690Z,100761.69
2017-12-13T00:03:33.848Z,100762.00
2017-12-13T00:06:04.483Z,100765.73
2017-12-13T00:08:33.716Z,100771.83
2017-12-13T00:11:03.203Z,100769.55
2017-12-13T00:13:33.268Z,100761.72
2017-12-13T00:16:03.080Z,100759.55
2017-12-13T00:18:32.349Z,100754.28
2017-12-13T00:21:01.873Z,100758.06
2017-12-13T00:23:31.046Z,100753.69
2017-12-13T00:26:00.334Z,100757.31
2017-12-13T00:28:29.814Z,100757.39
2017-12-13T00:30:58.967Z,100750.90
2017-12-13T00:33:28.107Z,100753.45
2017-12-13T00:35:57.485Z,100752.04
2017-12-13T00:38:26.771Z,100754.12
2017-12-13T00:40:55.878Z,100753.22
2017-12-13T00:43:25.248Z,100752.59
2017-12-13T00:45:54.372Z,100747.83
2017-12-13T00:48:23.471Z,100746.28
2017-12-13T00:50:53.263Z,100749.89
2017-12-13T00:53:22.414Z,100747.30
2017-12-13T00:55:51.524Z,100750.11
2017-12-13T00:58:21.002Z,100752.27
2017-12-13T01:00:50.331Z,100754.93
2017-12-13T01:03:19.584Z,100760.52
2017-12-13T01:05:48.985Z,100754.86
2017-12-13T01:08:18.123Z,100755.19
2017-12-13T01:10:47.206Z,100750.29
2017-12-13T01:13:16.815Z,100751.16
2017-12-13T01:15:45.924Z,100751.12
2017-12-13T01:18:15.031Z,100750.14
2017-12-13T01:20:44.439Z,100747.44
2017-12-13T01:23:13.699Z,100752.30
2017-12-13T01:25:43.441Z,100759.62
2017-12-13T01:28:12.844Z,100744.41
2017-12-13T01:30:41.971Z,100756.95
2017-12-13T01:33:11.101Z,100761.20
2017-12-13T01:35:45.656Z,100763.28
2017-12-13T01:38:14.781Z,100772.05
2017-12-13T01:40:44.135Z,100767.84
2017-12-13T01:43:13.282Z,100759.90
2017-12-13T01:45:42.360Z,100756.55
2017-12-13T01:48:12.331Z,100742.83
2017-12-13T01:50:41.427Z,100748.87
2017-12-13T01:53:10.531Z,100758.39
2017-12-13T01:55:39.950Z,100750.22
2017-12-13T01:58:09.095Z,100752.92
2017-12-13T02:00:38.193Z,100750.39
2017-12-13T02:03:07.649Z,100763.95
2017-12-13T02:05:37.128Z,100757.89
2017-12-13T02:08:06.336Z,100766.67
2017-12-13T02:10:35.784Z,100763.78
2017-12-13T02:13:05.015Z,100755.07
2017-12-13T02:15:34.139Z,100756.00
2017-12-13T02:18:04.910Z,100749.09
2017-12-13T02:20:34.587Z,100749.16
2017-12-13T02:23:03.990Z,100746.19
2017-12-13T02:25:33.534Z,100748.86
2017-12-13T02:28:04.419Z,100741.04
2017-12-13T02:30:34.125Z,100749.31
2017-12-13T02:33:03.668Z,100740.67
2017-12-13T02:35:32.913Z,100735.52
2017-12-13T02:38:03.382Z,100734.53
2017-12-13T02:40:42.517Z,100730.64
2017-12-13T02:43:11.605Z,100721.86
2017-12-13T02:45:41.027Z,100715.01
2017-12-13T02:48:10.111Z,100721.06
2017-12-13T02:50:39.214Z,100721.99
2017-12-13T02:53:08.612Z,100715.05
2017-12-13T02:55:37.769Z,100711.66
2017-12-13T02:58:07.075Z,100709.16
2017-12-13T03:00:36.476Z,100709.63
2017-12-13T03:03:05.626Z,100700.12
2017-12-13T03:05:34.724Z,100705.74
2017-12-13T03:08:05.584Z,100704.02
2017-12-13T03:10:34.770Z,100687.59
2017-12-13T03:13:04.291Z,100691.48
2017-12-13T03:15:34.106Z,100691.05
2017-12-13T03:18:03.974Z,100687.63
2017-12-13T03:20:33.267Z,100681.18
2017-12-13T03:23:02.812Z,100676.47
2017-12-13T03:25:32.130Z,100680.02
2017-12-13T03:28:02.438Z,100680.45
2017-12-13T03:30:32.271Z,100683.44
2017-12-13T03:33:01.612Z,100674.84
2017-12-13T03:35:30.911Z,100670.98
2017-12-13T03:38:00.296Z,100669.69
2017-12-13T03:40:29.400Z,100664.50
2017-12-13T03:42:58.492Z,100659.75
2017-12-13T03:45:27.935Z,100660.22
2017-12-13T03:47:57.112Z,100648.62
2017-12-13T03:50:26.255Z,100651.14
2017-12-13T03:52:55.636Z,100645.12
2017-12-13T03:55:24.740Z,100649.34
2017-12-13T03:57:53.850Z,100653.84
2017-12-13T04:00:23.347Z,100639.62
2017-12-13T04:02:52.460Z,100639.12
2017-12-13T04:05:21.570Z,100637.86
2017-12-13T04:07:50.985Z,100643.83
2017-12-13T04:10:20.186Z,100633.03
2017-12-13T04:12:49.343Z,100633.50
2017-12-13T04:15:18.765Z,100641.48
2017-12-13T04:17:47.923Z,100640.95
2017-12-13T04:20:17.058Z,100636.13
2017-12-13T04:22:46.488Z,100631.41
2017-12-13T04:25:16.567Z,100631.81
2017-12-13T04:27:45.672Z,100629.61
2017-12-13T04:30:15.077Z,100630.05
2017-12-13T04:32:44.186Z,100633.50
2017-12-13T04:35:13.327Z,100632.67
2017-12-13T04:37:42.767Z,100635.62
2017-12-13T04:40:11.871Z,100626.48
2017-12-13T04:42:40.973Z,100619.97
2017-12-13T04:45:10.376Z,100616.05
2017-12-13T04:47:39.517Z,100618.06
2017-12-13T04:50:08.653Z,100619.39
2017-12-13T04:52:38.102Z,100618.96
2017-12-13T04:55:07.272Z,100611.69
2017-12-13T04:57:36.544Z,100608.34
2017-12-13T05:00:06.001Z,100605.36
2017-12-13T05:02:35.148Z,100603.55
2017-12-13T05:05:04.518Z,100600.92
2017-12-13T05:07:34.110Z,100606.19
2017-12-13T05:10:05.088Z,100608.95
2017-12-13T05:12:34.533Z,100607.55
2017-12-13T05:15:03.810Z,100597.15
2017-12-13T05:17:33.276Z,100595.38
2017-12-13T05:20:03.325Z,100589.69
2017-12-13T05:22:32.632Z,100587.17
2017-12-13T05:25:01.975Z,100585.52
2017-12-13T05:27:31.424Z,100589.87
2017-12-13T05:30:00.541Z,100581.62
2017-12-13T05:32:29.684Z,100577.67
2017-12-13T05:34:59.136Z,100579.87
2017-12-13T05:37:28.316Z,100575.11
2017-12-13T05:39:57.815Z,100574.77
2017-12-13T05:42:27.445Z,100573.06
2017-12-13T05:44:56.616Z,100574.33
2017-12-13T05:47:25.778Z,100582.10
2017-12-13T05:49:55.211Z,100574.40
2017-12-13T05:52:24.316Z,100576.56
2017-12-13T05:54:53.808Z,100588.72
2017-12-13T05:57:23.297Z,100583.08
2017-12-13T05:59:52.431Z,100583.90
2017-12-13T06:02:21.603Z,100585.63
2017-12-13T06:04:51.022Z,100582.28
2017-12-13T06:07:20.186Z,100578.97
2017-12-13T06:09:49.330Z,100580.98
2017-12-13T06:12:18.824Z,100574.83
2017-12-13T06:14:47.984Z,100570.48
2017-12-13T06:17:17.139Z,100571.30
2017-12-13T06:19:46.558Z,100566.59
2017-12-13T06:22:15.718Z,100567.92
2017-12-13T06:24:44.827Z,100565.72
2017-12-13T06:27:14.261Z,100573.10
2017-12-13T06:29:43.370Z,100560.97
2017-12-13T06:32:13.085Z,100561.41
2017-12-13T06:34:43.529Z,100559.56
2017-12-13T06:37:12.703Z,100553.55
2017-12-13T06:39:41.934Z,100564.03
2017-12-13T06:42:11.379Z,100560.94
2017-12-13T06:44:40.511Z,100548.59
2017-12-13T06:47:09.688Z,100551.83
2017-12-13T06:49:39.087Z,100544.23
2017-12-13T06:52:08.219Z,100540.46
2017-12-13T06:54:37.359Z,100542.48
2017-12-13T06:57:07.807Z,100536.75
2017-12-13T06:59:37.505Z,100537.53
2017-12-13T07:02:06.678Z,100530.62
2017-12-13T07:04:36.122Z,100529.72
2017-12-13T07:07:05.374Z,100525.91
2017-12-13T07:10:05.071Z,100519.83
2017-12-13T07:12:34.554Z,100516.17
2017-12-13T07:15:03.939Z,100520.38
2017-12-13T07:17:33.840Z,100515.98
2017-12-13T07:20:05.175Z,100510.67
2017-12-13T07:22:34.346Z,100515.34
2017-12-13T07:25:03.645Z,100508.48
2017-12-13T07:27:33.297Z,100506.70
2017-12-13T07:30:03.285Z,100499.88
2017-12-13T07:32:32.685Z,100494.19
2017-12-13T07:35:02.315Z,100496.30
2017-12-13T07:37:31.538Z,100500.73
2017-12-13T07:40:00.703Z,100500.38
2017-12-13T07:42:30.296Z,100494.14
2017-12-13T07:44:59.439Z,100494.45
2017-12-13T07:47:28.555Z,100489.98
2017-12-13T07:49:58.038Z,100479.77
2017-12-13T07:52:27.144Z,100481.22
2017-12-13T07:54:56.326Z,100483.53
2017-12-13T07:57:25.788Z,100481.94
2017-12-13T07:59:54.987Z,100472.72
2017-12-13T08:02:24.134Z,100472.13
2017-12-13T08:04:53.661Z,100461.20
2017-12-13T08:07:22.870Z,100463.28
2017-12-13T08:09:52.882Z,100448.73
2017-12-13T08:12:22.319Z,100451.09
2017-12-13T08:14:51.472Z,100441.91
2017-12-13T08:17:20.624Z,100438.05
2017-12-13T08:19:50.035Z,100441.57
2017-12-13T08:22:19.208Z,100433.78
2017-12-13T08:24:48.327Z,100419.55
2017-12-13T08:27:17.781Z,100404.91
2017-12-13T08:29:46.919Z,100397.72
2017-12-13T08:32:16.116Z,100404.52
2017-12-13T08:34:46.546Z,100396.63
2017-12-13T08:37:15.842Z,100391.62
2017-12-13T08:39:44.996Z,100394.57
2017-12-13T08:42:14.464Z,100383.54
2017-12-13T08:44:43.648Z,100385.61
2017-12-13T08:47:12.831Z,100381.73
2017-12-13T08:49:43.328Z,100376.86
2017-12-13T08:52:12.516Z,100382.48
2017-12-13T08:54:41.751Z,100367.33
2017-12-13T08:57:11.377Z,100366.00
2017-12-13T08:59:40.535Z,100361.31
2017-12-13T09:02:09.835Z,100357.41
2017-12-13T09:04:39.362Z,100353.38
2017-12-13T09:07:08.696Z,100347.51
2017-12-13T09:09:37.902Z,100343.73
2017-12-13T09:12:07.389Z,100328.27
2017-12-13T09:14:36.854Z,100325.98
2017-12-13T09:17:06.137Z,100312.66
2017-12-13T09:19:35.607Z,100308.63
2017-12-13T09:22:06.356Z,100304.45
2017-12-13T09:24:35.615Z,100292.61
2017-12-13T09:27:05.276Z,100286.27
2017-12-13T09:29:34.536Z,100276.94
2017-12-13T09:32:04.451Z,100264.33
2017-12-13T09:34:34.796Z,100259.55
2017-12-13T09:37:05.108Z,100259.56
2017-12-13T09:39:34.390Z,100262.30
2017-12-13T09:42:04.779Z,100258.22
2017-12-13T09:44:34.933Z,100245.09
2017-12-13T09:47:04.526Z,100243.08
2017-12-13T09:49:34.293Z,100226.61
2017-12-13T09:52:06.985Z,100226.00
2017-12-13T09:54:39.135Z,100229.00
2017-12-13T09:57:08.912Z,100220.95
2017-12-13T09:59:38.187Z,100206.97
2017-12-13T10:02:07.948Z,100203.72
2017-12-13T10:04:38.976Z,100209.91
2017-12-13T10:07:08.550Z,100207.14
2017-12-13T10:09:38.691Z,100202.56
2017-12-13T10:12:08.222Z,100180.52
2017-12-13T10:14:37.512Z,100180.25
2017-12-13T10:17:07.250Z,100178.58
2017-12-13T10:19:37.792Z,100169.33
2017-12-13T10:22:07.055Z,100146.21
2017-12-13T10:24:37.207Z,100142.78
2017-12-13T10:27:06.719Z,100130.05
2017-12-13T10:29:35.844Z,100127.91
2017-12-13T10:32:06.097Z,100124.36
2017-12-13T10:34:35.261Z,100118.66
2017-12-13T10:37:04.898Z,100119.96
2017-12-13T10:39:34.424Z,100126.20
2017-12-13T10:42:04.752Z,100117.61
2017-12-13T10:44:34.059Z,100114.50
2017-12-13T10:47:03.761Z,100097.13
2017-12-13T10:49:33.328Z,100102.41
2017-12-13T10:55:04.211Z,100089.75
2017-12-13T10:57:33.572Z,100079.41
2017-12-13T11:00:04.669Z,100070.98
2017-12-13T11:02:34.378Z,100057.83
2017-12-13T11:05:03.726Z,100057.13
2017-12-13T11:07:33.092Z,100049.00
2017-12-13T11:10:04.810Z,100041.58
2017-12-13T11:12:39.561Z,100030.43
2017-12-13T11:15:08.938Z,100032.79
2017-12-13T11:17:38.074Z,100022.02
2017-12-13T11:20:07.366Z,100013.23
2017-12-13T11:22:37.006Z,100007.94
2017-12-13T11:25:06.273Z,99998.58
2017-12-13T11:27:35.729Z,99987.53
2017-12-13T11:30:05.844Z,99978.05
2017-12-13T11:32:34.987Z,99971.11
2017-12-13T11:35:04.279Z,99966.77
2017-12-13T11:37:34.091Z,99959.88
2017-12-13T11:40:04.504Z,99954.86
2017-12-13T11:42:34.270Z,99947.11
2017-12-13T11:45:03.801Z,99922.68
2017-12-13T11:47:33.263Z,99922.06
2017-12-13T11:50:04.172Z,99917.80
2017-12-13T11:52:33.815Z,99910.50
2017-12-13T11:55:03.172Z,99900.47
2017-12-13T11:57:32.542Z,99909.31
2017-12-13T12:00:02.719Z,99907.67
2017-12-13T12:02:32.556Z,99895.20
2017-12-13T12:05:02.505Z,99893.31
2017-12-13T12:07:32.078Z,99884.19
2017-12-13T12:10:01.262Z,99878.87
2017-12-13T12:12:30.471Z,99868.22
2017-12-13T12:15:00.083Z,99868.45
2017-12-13T12:17:29.266Z,99857.94
2017-12-13T12:19:58.474Z,99851.00
2017-12-13T12:22:28.056Z,99848.25
2017-12-13T12:24:57.342Z,99841.55
2017-12-13T12:27:26.632Z,99844.16
2017-12-13T12:29:56.065Z,99834.91
2017-12-13T12:32:25.207Z,99836.22
2017-12-13T12:34:54.356Z,99828.51
2017-12-13T12:37:23.875Z,99820.17
2017-12-13T12:39:53.016Z,99804.05
2017-12-13T12:42:22.137Z,99788.84
2017-12-13T12:44:51.575Z,99783.62
2017-12-13T12:47:20.719Z,99777.88
2017-12-13T12:49:50.690Z,99757.06
2017-12-13T12:52:20.097Z,99746.50
2017-12-13T12:54:49.374Z,99748.55
2017-12-13T12:57:18.508Z,99738.50
2017-12-13T12:59:47.950Z,99733.34
2017-12-13T13:02:17.104Z,99728.27
2017-12-13T13:04:46.235Z,99718.92
2017-12-13T13:07:15.667Z,99711.36
2017-12-13T13:09:44.793Z,99693.89
2017-12-13T13:12:13.896Z,99691.17
2017-12-13T13:14:43.356Z,99688.44
2017-12-13T13:17:12.518Z,99678.55
2017-12-13T13:19:41.811Z,99682.53
2017-12-13T13:22:11.272Z,99685.36
2017-12-13T13:24:40.455Z,99685.73
2017-12-13T13:27:09.575Z,99675.95
2017-12-13T13:29:39.008Z,99676.31
2017-12-13T13:32:08.161Z,99663.87
2017-12-13T13:34:37.899Z,99667.67
2017-12-13T13:37:07.365Z,99660.56
2017-12-13T13:39:36.555Z,99654.28
2017-12-13T13:42:06.397Z,99641.84
2017-12-13T13:44:35.840Z,99640.29
2017-12-13T13:47:05.269Z,99644.98
2017-12-13T13:49:34.443Z,99648.52
2017-12-13T13:52:04.811Z,99658.34
2017-12-13T13:54:34.860Z,99651.19
2017-12-13T13:57:04.553Z,99647.91
2017-12-13T13:59:34.750Z,99630.08
2017-12-13T14:02:05.461Z,99634.36
2017-12-13T14:04:35.128Z,99639.59
2017-12-13T14:07:04.614Z,99628.36
2017-12-13T14:09:33.926Z,99633.25
2017-12-13T14:12:04.022Z,99625.64
2017-12-13T14:14:33.592Z,99618.27
2017-12-13T14:17:03.471Z,99602.34
2017-12-13T14:19:33.014Z,99603.80
2017-12-13T14:22:03.495Z,99597.83
2017-12-13T14:24:33.354Z,99583.57
2017-12-13T14:27:02.685Z,99579.34
2017-12-13T14:29:32.154Z,99568.48
2017-12-13T14:32:03.429Z,99568.60
2017-12-13T14:34:32.739Z,99565.24
2017-12-13T14:37:02.673Z,99555.70
2017-12-13T14:39:31.962Z,99559.48
2017-12-13T14:42:01.184Z,99555.46
2017-12-13T14:44:31.080Z,99551.78
2017-12-13T14:47:00.582Z,99543.34
2017-12-13T14:49:29.706Z,99551.54
2017-12-13T14:52:13.811Z,99535.23
2017-12-13T14:54:42.924Z,99538.64
2017-12-13T14:57:12.327Z,99540.41
2017-12-13T14:59:41.445Z,99542.83
2017-12-13T15:02:11.957Z,99532.86
2017-12-13T15:04:41.127Z,99529.58
2017-12-13T15:07:10.579Z,99528.61
2017-12-13T15:09:39.774Z,99515.86
2017-12-13T15:12:09.205Z,99523.34
2017-12-13T15:14:38.341Z,99532.52
2017-12-13T15:17:07.454Z,99519.33
2017-12-13T15:19:37.093Z,99517.53
2017-12-13T15:22:06.404Z,99522.45
2017-12-13T15:24:36.261Z,99513.53
2017-12-13T15:27:05.975Z,99502.29
2017-12-13T15:29:36.270Z,99514.59
2017-12-13T15:32:05.488Z,99508.01
2017-12-13T15:34:36.898Z,99509.11
2017-12-13T15:37:07.854Z,99490.34
2017-12-13T15:39:37.143Z,99490.09
2017-12-13T15:42:07.801Z,99498.58
2017-12-13T15:44:37.637Z,99491.00
2017-12-13T15:47:06.794Z,99476.30
2017-12-13T15:49:36.263Z,99473.97
2017-12-13T15:52:06.628Z,99456.28
2017-12-13T15:54:35.728Z,99461.23
2017-12-13T15:57:05.191Z,99463.39
2017-12-13T15:59:34.676Z,99452.42
2017-12-13T16:02:04.556Z,99454.08
2017-12-13T16:04:34.203Z,99449.62
2017-12-13T16:07:04.033Z,99446.02
2017-12-13T16:09:33.422Z,99453.52
2017-12-13T16:12:04.887Z,99450.34
2017-12-13T16:14:34.464Z,99445.05
2017-12-13T16:17:04.620Z,99439.41
2017-12-13T16:19:34.547Z,99434.31
2017-12-13T16:22:05.045Z,99413.15
2017-12-13T16:24:34.385Z,99426.01
2017-12-13T16:27:04.373Z,99421.79
2017-12-13T16:29:33.777Z,99419.86
2017-12-13T16:32:03.817Z,99422.28
2017-12-13T16:34:33.519Z,99414.62
2017-12-13T16:37:03.802Z,99411.64
2017-12-13T16:39:33.158Z,99405.98
2017-12-13T16:42:03.378Z,99401.20
2017-12-13T16:44:32.764Z,99404.16
2017-12-13T16:47:02.764Z,99393.98
2017-12-13T16:49:32.544Z,99392.52
2017-12-13T16:52:03.827Z,99386.27
2017-12-13T16:54:33.927Z,99382.28
2017-12-13T16:57:03.985Z,99382.59
2017-12-13T16:59:34.952Z,99376.23
2017-12-13T17:02:06.068Z,99362.44
2017-12-13T17:04:35.589Z,99355.09
2017-12-13T17:07:04.886Z,99349.08
2017-12-13T17:09:34.202Z,99344.06
2017-12-13T17:12:04.268Z,99346.80
2017-12-13T17:14:34.275Z,99339.58
2017-12-13T17:17:04.235Z,99331.18
2017-12-13T17:19:33.953Z,99333.78
2017-12-13T17:22:04.003Z,99319.05
2017-12-13T17:24:33.260Z,99326.61
2017-12-13T17:27:03.500Z,99313.42
2017-12-13T17:29:32.773Z,99316.62
2017-12-13T17:32:02.785Z,99310.67
2017-12-13T17:34:32.295Z,99306.41
2017-12-13T17:37:01.504Z,99296.62
2017-12-13T17:39:30.705Z,99291.60
2017-12-13T17:42:00.234Z,99290.48
2017-12-13T17:44:29.425Z,99289.38
2017-12-13T17:46:58.538Z,99271.29
2017-12-13T17:49:28.260Z,99272.72
2017-12-13T17:51:57.425Z,99278.69
2017-12-13T17:54:26.649Z,99278.75
2017-12-13T17:56:56.120Z,99270.68
2017-12-13T17:59:25.307Z,99261.57
2017-12-13T18:01:54.850Z,99253.11
2017-12-13T18:04:24.627Z,99232.76
2017-12-13T18:06:54.148Z,99234.02
2017-12-13T18:09:23.313Z,99234.80
2017-12-13T18:11:52.815Z,99238.30
2017-12-13T18:14:21.945Z,99230.25
2017-12-13T18:16:51.158Z,99217.41
2017-12-13T18:19:20.990Z,99209.95
2017-12-13T18:21:50.327Z,99196.55
2017-12-13T18:24:19.549Z,99180.58
2017-12-13T18:26:49.434Z,99166.20
2017-12-13T18:29:21.530Z,99147.88
2017-12-13T18:31:51.474Z,99131.28
2017-12-13T18:34:21.343Z,99115.43
2017-12-13T18:36:50.718Z,99091.61
2017-12-13T18:39:22.244Z,99082.47
2017-12-13T18:41:52.083Z,99064.27
2017-12-13T18:44:21.368Z,99076.53
2017-12-13T18:46:51.630Z,99064.41
2017-12-13T18:49:21.117Z,99055.08
2017-12-13T18:51:50.434Z,99071.01
2017-12-13T18:54:20.125Z,99078.45
2017-12-13T18:56:50.357Z,99083.33
2017-12-13T18:59:20.437Z,99092.36
2017-12-13T19:01:50.859Z,99102.52
2017-12-13T19:04:20.176Z,99085.75
2017-12-13T19:06:49.526Z,99092.34
2017-12-13T19:09:19.298Z,99087.23
2017-12-13T19:11:48.565Z,99069.34
2017-12-13T19:14:17.756Z,99053.06
2017-12-13T19:16:48.264Z,99047.19
2017-12-13T19:21:47.992Z,99029.48
2017-12-13T19:24:17.303Z,99011.63
2017-12-13T19:26:46.852Z,99011.70
2017-12-13T19:29:16.952Z,98999.69
2017-12-13T19:31:46.756Z,98985.72
2017-12-13T19:34:16.874Z,98970.43
2017-12-13T19:36:46.225Z,98951.66
2017-12-13T19:39:15.644Z,98957.81
2017-12-13T19:41:46.968Z,98953.81
2017-12-13T19:44:16.236Z,98948.44
2017-12-13T19:46:45.946Z,98945.44
2017-12-13T19:49:15.404Z,98933.61
2017-12-13T19:51:44.693Z,98931.90
2017-12-13T19:54:14.190Z,98930.58
2017-12-13T19:56:43.640Z,98936.30
2017-12-13T19:59:13.109Z,98916.57
2017-12-13T20:01:42.198Z,98896.13
2017-12-13T20:04:11.597Z,98896.95
2017-12-13T20:06:41.320Z,98897.34
2017-12-13T20:09:11.205Z,98906.93
2017-12-13T20:11:41.953Z,98893.30
2017-12-13T20:14:11.150Z,98886.89
2017-12-13T20:16:41.131Z,98875.78
2017-12-13T20:19:11.758Z,98860.12
2017-12-13T20:21:41.187Z,98847.48
2017-12-13T20:24:10.348Z,98840.22
2017-12-13T20:26:39.837Z,98821.08
2017-12-13T20:29:09.122Z,98815.62
2017-12-13T20:31:39.177Z,98805.08
2017-12-13T20:34:09.816Z,98795.69
2017-12-13T20:36:39.211Z,98783.73
2017-12-13T20:39:08.803Z,98772.95
2017-12-13T20:41:39.577Z,98764.77
2017-12-13T20:44:09.422Z,98756.00
2017-12-13T20:46:38.587Z,98756.06
2017-12-13T20:49:10.414Z,98750.69
2017-12-13T20:51:39.924Z,98741.86
2017-12-13T20:54:09.699Z,98741.50
2017-12-13T20:56:39.898Z,98727.34
2017-12-13T20:59:10.574Z,98725.02
2017-12-13T21:01:39.990Z,98711.77
2017-12-13T21:04:09.606Z,98700.88
2017-12-13T21:06:39.976Z,98686.70
2017-12-13T21:09:11.016Z,98682.76
2017-12-13T21:11:40.986Z,98673.95
2017-12-13T21:14:10.518Z,98659.31
2017-12-13T21:16:39.772Z,98657.91
2017-12-13T21:19:09.244Z,98659.33
2017-12-13T21:21:38.712Z,98650.03
2017-12-13T21:24:08.053Z,98632.81
2017-12-13T21:26:37.714Z,98628.27
2017-12-13T21:29:08.636Z,98617.20
2017-12-13T21:31:37.853Z,98617.88
2017-12-13T21:34:07.374Z,98605.03
2017-12-13T21:36:36.514Z,98597.28
2017-12-13T21:39:06.020Z,98595.12
2017-12-13T21:41:36.060Z,98579.14
2017-12-13T21:44:07.375Z,98583.39
2017-12-13T21:46:36.803Z,98573.76
2017-12-13T21:49:06.391Z,98556.31
2017-12-13T21:51:36.200Z,98554.72
2017-12-13T21:54:09.706Z,98544.28
2017-12-13T21:56:39.218Z,98539.43
2017-12-13T21:59:08.432Z,98511.42
2017-12-13T22:01:38.896Z,98512.14
2017-12-13T22:04:08.880Z,98510.32
2017-12-13T22:06:38.151Z,98522.00
2017-12-13T22:09:07.413Z,98524.10
2017-12-13T22:11:36.952Z,98502.24
2017-12-13T22:14:06.336Z,98500.75
2017-12-13T22:16:35.492Z,98502.98
2017-12-13T22:19:04.993Z,98482.88
2017-12-13T22:21:34.611Z,98484.55
2017-12-13T22:24:04.366Z,98468.84
2017-12-13T22:26:33.888Z,98483.69
2017-12-13T22:29:03.416Z,98482.95
2017-12-13T22:31:32.672Z,98487.53
2017-12-13T22:34:03.203Z,98485.83
2017-12-13T22:36:32.618Z,98482.55
2017-12-13T22:39:02.403Z,98468.36
2017-12-13T22:41:32.104Z,98468.33
2017-12-13T22:44:02.866Z,98465.25
2017-12-13T22:46:32.074Z,98466.67
2017-12-13T22:49:01.791Z,98456.02
2017-12-13T22:51:30.965Z,98463.12
2017-12-13T22:54:00.103Z,98457.22
2017-12-13T22:56:29.536Z,98453.62
2017-12-13T22:58:58.696Z,98435.39
2017-12-13T23:01:27.812Z,98432.09
2017-12-13T23:03:57.190Z,98434.63
2017-12-13T23:06:26.264Z,98434.86
2017-12-13T23:08:55.719Z,98436.17
2017-12-13T23:11:25.131Z,98431.80
2017-12-13T23:13:54.735Z,98420.05
2017-12-13T23:16:24.030Z,98433.87
2017-12-13T23:18:53.499Z,98427.77
2017-12-13T23:21:22.610Z,98432.36
2017-12-13T23:23:51.751Z,98429.61
2017-12-13T23:26:21.135Z,98430.53
2017-12-13T23:28:50.422Z,98428.66
2017-12-13T23:31:19.596Z,98423.96
2017-12-13T23:33:48.994Z,98426.88
2017-12-13T23:36:18.090Z,98419.36
2017-12-13T23:38:47.483Z,98418.67
2017-12-13T23:41:16.917Z,98415.70
2017-12-13T23:43:46.124Z,98426.30
2017-12-13T23:46:15.294Z,98427.38
2017-12-13T23:48:44.718Z,98427.80
2017-12-13T23:51:13.895Z,98422.70
2017-12-13T23:53:43.036Z,98418.32
2017-12-13T23:56:12.441Z,98435.48
2017-12-13T23:58:41.639Z,98426.23
